Terminal Aerodrome Forecast
Issued by NWS

Current Version | Previous Version | Graphics & Text | Print | Product List | Glossary On
Versions: 1 2 3 4 5 6 7 8 9 10 11 12 13 14 15 16 17 18 19 20 21 22 23 24
382
FTUS41 KPBZ 160520
TAFMGW
TAF
KMGW 160520Z 1606/1706 19006KT P6SM -SN OVC035
     FM160800 17006KT 3SM -SN OVC015
     FM161200 21005KT 3SM -SN OVC008
     FM161800 24007KT 5SM -SN OVC015
     FM170300 28007KT 6SM -SN OVC025=

USA.gov is the U.S. government's official web portal to all federal, state and local government web resources and services.